sensor_id;sensor_type;location;lat;lon;timestamp;pressure;altitude;pressure_sealevel;temperature;humidity
49473;BME280;73594;50.944;6.950;2023-10-31T00:00:13;99255.50;;;11.24;100.00
49473;BME280;73594;50.944;6.950;2023-10-31T00:02:39;99263.91;;;11.23;100.00
49473;BME280;73594;50.944;6.950;2023-10-31T00:05:04;99267.41;;;11.23;100.00
49473;BME280;73594;50.944;6.950;2023-10-31T00:07:30;99270.13;;;11.23;100.00
49473;BME280;73594;50.944;6.950;2023-10-31T00:09:56;99271.22;;;11.22;100.00
49473;BME280;73594;50.944;6.950;2023-10-31T00:12:22;99277.72;;;11.21;100.00
49473;BME280;73594;50.944;6.950;2023-10-31T00:14:47;99276.91;;;11.21;100.00
49473;BME280;73594;50.944;6.950;2023-10-31T00:17:12;99286.13;;;11.20;100.00
49473;BME280;73594;50.944;6.950;2023-10-31T00:19:38;99295.84;;;11.21;100.00
49473;BME280;73594;50.944;6.950;2023-10-31T00:22:03;99292.34;;;11.20;100.00
49473;BME280;73594;50.944;6.950;2023-10-31T00:24:29;99292.84;;;11.22;100.00
49473;BME280;73594;50.944;6.950;2023-10-31T00:26:54;99289.63;;;11.20;100.00
49473;BME280;73594;50.944;6.950;2023-10-31T00:29:19;99294.53;;;11.18;100.00
49473;BME280;73594;50.944;6.950;2023-10-31T00:31:45;99294.84;;;11.17;100.00
49473;BME280;73594;50.944;6.950;2023-10-31T00:34:10;99304.06;;;11.16;100.00
49473;BME280;73594;50.944;6.950;2023-10-31T00:36:36;99309.16;;;11.17;100.00
49473;BME280;73594;50.944;6.950;2023-10-31T00:39:02;99316.22;;;11.13;100.00
49473;BME280;73594;50.944;6.950;2023-10-31T00:41:27;99319.25;;;11.12;100.00
49473;BME280;73594;50.944;6.950;2023-10-31T00:43:54;99327.72;;;11.05;100.00
49473;BME280;73594;50.944;6.950;2023-10-31T00:46:20;99317.22;;;11.04;100.00
49473;BME280;73594;50.944;6.950;2023-10-31T00:48:45;99319.91;;;11.04;100.00
49473;BME280;73594;50.944;6.950;2023-10-31T00:51:10;99334.53;;;11.03;100.00
49473;BME280;73594;50.944;6.950;2023-10-31T00:53:36;99328.41;;;10.97;100.00
49473;BME280;73594;50.944;6.950;2023-10-31T00:56:02;99334.91;;;10.96;100.00
49473;BME280;73594;50.944;6.950;2023-10-31T00:58:29;99337.91;;;10.94;100.00
49473;BME280;73594;50.944;6.950;2023-10-31T01:00:54;99344.69;;;10.92;100.00
49473;BME280;73594;50.944;6.950;2023-10-31T01:03:20;99347.69;;;10.90;100.00
49473;BME280;73594;50.944;6.950;2023-10-31T01:05:47;99337.47;;;10.87;100.00
49473;BME280;73594;50.944;6.950;2023-10-31T01:08:13;99346.16;;;10.84;100.00
49473;BME280;73594;50.944;6.950;2023-10-31T01:10:38;99346.38;;;10.88;100.00
49473;BME280;73594;50.944;6.950;2023-10-31T01:13:03;99341.28;;;10.86;100.00
49473;BME280;73594;50.944;6.950;2023-10-31T01:15:29;99347.56;;;10.82;100.00
49473;BME280;73594;50.944;6.950;2023-10-31T01:17:54;99346.56;;;10.73;100.00
49473;BME280;73594;50.944;6.950;2023-10-31T01:20:20;99358.47;;;10.72;100.00
49473;BME280;73594;50.944;6.950;2023-10-31T01:22:45;99360.47;;;10.66;100.00
49473;BME280;73594;50.944;6.950;2023-10-31T01:25:10;99367.31;;;10.58;100.00
49473;BME280;73594;50.944;6.950;2023-10-31T01:27:36;99361.47;;;10.51;100.00
49473;BME280;73594;50.944;6.950;2023-10-31T01:30:01;99366.59;;;10.53;100.00
49473;BME280;73594;50.944;6.950;2023-10-31T01:32:27;99364.81;;;10.43;100.00
49473;BME280;73594;50.944;6.950;2023-10-31T01:34:52;99368.66;;;10.37;100.00
49473;BME280;73594;50.944;6.950;2023-10-31T01:37:18;99365.94;;;10.37;100.00
49473;BME280;73594;50.944;6.950;2023-10-31T01:39:45;99373.25;;;10.37;100.00
49473;BME280;73594;50.944;6.950;2023-10-31T01:42:13;99372.50;;;10.31;100.00
49473;BME280;73594;50.944;6.950;2023-10-31T01:44:42;99366.38;;;10.25;100.00
49473;BME280;73594;50.944;6.950;2023-10-31T01:47:08;99375.56;;;10.24;100.00
49473;BME280;73594;50.944;6.950;2023-10-31T01:49:34;99368.25;;;10.25;100.00
49473;BME280;73594;50.944;6.950;2023-10-31T01:52:01;99365.59;;;10.20;100.00
49473;BME280;73594;50.944;6.950;2023-10-31T01:54:26;99367.22;;;10.21;100.00
49473;BME280;73594;50.944;6.950;2023-10-31T01:56:54;99383.19;;;10.17;100.00
49473;BME280;73594;50.944;6.950;2023-10-31T01:59:21;99386.16;;;10.16;100.00
49473;BME280;73594;50.944;6.950;2023-10-31T02:01:47;99385.66;;;10.14;100.00
49473;BME280;73594;50.944;6.950;2023-10-31T02:04:13;99380.81;;;10.11;100.00
49473;BME280;73594;50.944;6.950;2023-10-31T02:06:38;99380.31;;;10.09;100.00
49473;BME280;73594;50.944;6.950;2023-10-31T02:09:04;99380.31;;;10.09;100.00
49473;BME280;73594;50.944;6.950;2023-10-31T02:11:29;99378.69;;;10.08;100.00
49473;BME280;73594;50.944;6.950;2023-10-31T02:14:13;99382.16;;;10.13;100.00
49473;BME280;73594;50.944;6.950;2023-10-31T02:16:57;99378.13;;;10.11;100.00
49473;BME280;73594;50.944;6.950;2023-10-31T02:19:23;99384.91;;;10.08;100.00
49473;BME280;73594;50.944;6.950;2023-10-31T02:21:48;99375.50;;;10.00;100.00
49473;BME280;73594;50.944;6.950;2023-10-31T02:24:14;99381.44;;;10.02;100.00
49473;BME280;73594;50.944;6.950;2023-10-31T02:26:39;99375.22;;;10.02;100.00
49473;BME280;73594;50.944;6.950;2023-10-31T02:29:04;99365.22;;;10.02;100.00
49473;BME280;73594;50.944;6.950;2023-10-31T02:31:31;99370.09;;;10.06;100.00
49473;BME280;73594;50.944;6.950;2023-10-31T02:33:56;99369.81;;;10.02;100.00
49473;BME280;73594;50.944;6.950;2023-10-31T02:36:22;99375.00;;;9.98;100.00
49473;BME280;73594;50.944;6.950;2023-10-31T02:38:48;99375.84;;;9.94;100.00
49473;BME280;73594;50.944;6.950;2023-10-31T02:41:14;99378.31;;;9.90;100.00
49473;BME280;73594;50.944;6.950;2023-10-31T02:43:40;99385.31;;;9.91;100.00
49473;BME280;73594;50.944;6.950;2023-10-31T02:46:06;99391.28;;;9.88;100.00
49473;BME280;73594;50.944;6.950;2023-10-31T02:48:31;99383.19;;;9.88;100.00
49473;BME280;73594;50.944;6.950;2023-10-31T02:51:04;99379.69;;;9.88;100.00
49473;BME280;73594;50.944;6.950;2023-10-31T02:53:30;99392.66;;;9.86;100.00
49473;BME280;73594;50.944;6.950;2023-10-31T02:55:55;99382.16;;;9.84;100.00
49473;BME280;73594;50.944;6.950;2023-10-31T02:58:21;99389.47;;;9.84;100.00
49473;BME280;73594;50.944;6.950;2023-10-31T03:00:46;99401.56;;;9.86;100.00
49473;BME280;73594;50.944;6.950;2023-10-31T03:03:12;99394.03;;;9.83;100.00
49473;BME280;73594;50.944;6.950;2023-10-31T03:05:37;99401.84;;;9.85;100.00
49473;BME280;73594;50.944;6.950;2023-10-31T03:08:02;99394.03;;;9.83;100.00
49473;BME280;73594;50.944;6.950;2023-10-31T03:10:28;99403.75;;;9.84;100.00
49473;BME280;73594;50.944;6.950;2023-10-31T03:12:54;99398.59;;;9.88;100.00
49473;BME280;73594;50.944;6.950;2023-10-31T03:15:19;99405.59;;;9.89;100.00
49473;BME280;73594;50.944;6.950;2023-10-31T03:17:45;99401.81;;;9.90;100.00
49473;BME280;73594;50.944;6.950;2023-10-31T03:20:10;99408.28;;;9.89;100.00
49473;BME280;73594;50.944;6.950;2023-10-31T03:22:36;99416.97;;;9.86;100.00
49473;BME280;73594;50.944;6.950;2023-10-31T03:25:02;99415.06;;;9.86;100.00
49473;BME280;73594;50.944;6.950;2023-10-31T03:27:27;99414.50;;;9.89;100.00
49473;BME280;73594;50.944;6.950;2023-10-31T03:29:53;99423.44;;;9.85;100.00
49473;BME280;73594;50.944;6.950;2023-10-31T03:32:18;99416.97;;;9.86;100.00
49473;BME280;73594;50.944;6.950;2023-10-31T03:34:43;99418.84;;;9.85;100.00
49473;BME280;73594;50.944;6.950;2023-10-31T03:37:09;99418.84;;;9.85;100.00
49473;BME280;73594;50.944;6.950;2023-10-31T03:39:38;99419.91;;;9.89;100.00
49473;BME280;73594;50.944;6.950;2023-10-31T03:42:03;99424.50;;;9.89;100.00
49473;BME280;73594;50.944;6.950;2023-10-31T03:44:30;99426.91;;;9.90;100.00
49473;BME280;73594;50.944;6.950;2023-10-31T03:46:56;99432.31;;;9.90;100.00
49473;BME280;73594;50.944;6.950;2023-10-31T03:49:21;99435.53;;;9.92;100.00
49473;BME280;73594;50.944;6.950;2023-10-31T03:51:46;99428.50;;;9.91;100.00
49473;BME280;73594;50.944;6.950;2023-10-31T03:54:11;99433.91;;;9.91;100.00
49473;BME280;73594;50.944;6.950;2023-10-31T03:56:41;99436.31;;;9.93;100.00
49473;BME280;73594;50.944;6.950;2023-10-31T03:59:07;99444.66;;;9.96;100.00
49473;BME280;73594;50.944;6.950;2023-10-31T04:01:32;99441.97;;;9.96;100.00
49473;BME280;73594;50.944;6.950;2023-10-31T04:03:57;99444.59;;;10.01;100.00
49473;BME280;73594;50.944;6.950;2023-10-31T04:06:24;99452.41;;;10.03;100.00
49473;BME280;73594;50.944;6.950;2023-10-31T04:08:49;99448.38;;;10.06;100.00
49473;BME280;73594;50.944;6.950;2023-10-31T04:11:14;99451.59;;;10.08;100.00
49473;BME280;73594;50.944;6.950;2023-10-31T04:13:40;99453.50;;;10.07;100.00
49473;BME280;73594;50.944;6.950;2023-10-31T04:16:06;99455.34;;;10.12;100.00
49473;BME280;73594;50.944;6.950;2023-10-31T04:18:31;99462.88;;;10.15;100.00
49473;BME280;73594;50.944;6.950;2023-10-31T04:20:56;99462.88;;;10.15;100.00
49473;BME280;73594;50.944;6.950;2023-10-31T04:23:22;99468.78;;;10.17;100.00
49473;BME280;73594;50.944;6.950;2023-10-31T04:25:47;99466.09;;;10.17;100.00
49473;BME280;73594;50.944;6.950;2023-10-31T04:28:12;99470.91;;;10.20;100.00
49473;BME280;73594;50.944;6.950;2023-10-31T04:30:39;99465.78;;;10.23;100.00
49473;BME280;73594;50.944;6.950;2023-10-31T04:33:09;99469.78;;;10.26;100.00
49473;BME280;73594;50.944;6.950;2023-10-31T04:35:34;99469.28;;;10.24;100.00
49473;BME280;73594;50.944;6.950;2023-10-31T04:37:59;99474.09;;;10.27;100.00
49473;BME280;73594;50.944;6.950;2023-10-31T04:40:25;99460.09;;;10.25;100.00
49473;BME280;73594;50.944;6.950;2023-10-31T04:42:50;99472.22;;;10.27;100.00
49473;BME280;73594;50.944;6.950;2023-10-31T04:45:18;99480.59;;;10.26;100.00
49473;BME280;73594;50.944;6.950;2023-10-31T04:47:43;99484.09;;;10.26;100.00
49473;BME280;73594;50.944;6.950;2023-10-31T04:50:09;99488.69;;;10.26;100.00
49473;BME280;73594;50.944;6.950;2023-10-31T04:52:34;99499.22;;;10.27;100.00
49473;BME280;73594;50.944;6.950;2023-10-31T04:55:00;99495.72;;;10.27;100.00
49473;BME280;73594;50.944;6.950;2023-10-31T04:57:25;99501.34;;;10.30;100.00
49473;BME280;73594;50.944;6.950;2023-10-31T04:59:50;99493.25;;;10.30;100.00
49473;BME280;73594;50.944;6.950;2023-10-31T05:02:21;99499.16;;;10.32;100.00
49473;BME280;73594;50.944;6.950;2023-10-31T05:04:46;99503.19;;;10.35;100.00
49473;BME280;73594;50.944;6.950;2023-10-31T05:07:16;99502.91;;;10.37;100.00
49473;BME280;73594;50.944;6.950;2023-10-31T05:09:41;99505.03;;;10.40;100.00
49473;BME280;73594;50.944;6.950;2023-10-31T05:12:07;99499.31;;;10.46;100.00
49473;BME280;73594;50.944;6.950;2023-10-31T05:14:32;99515.25;;;10.48;100.00
49473;BME280;73594;50.944;6.950;2023-10-31T05:16:58;99506.84;;;10.49;99.73
49473;BME280;73594;50.944;6.950;2023-10-31T05:19:23;99502.47;;;10.53;99.39
49473;BME280;73594;50.944;6.950;2023-10-31T05:22:07;99501.38;;;10.54;98.65
49473;BME280;73594;50.944;6.950;2023-10-31T05:24:32;99504.38;;;10.53;98.04
49473;BME280;73594;50.944;6.950;2023-10-31T05:26:58;99505.69;;;10.55;97.55
49473;BME280;73594;50.944;6.950;2023-10-31T05:29:23;99506.78;;;10.54;97.38
49473;BME280;73594;50.944;6.950;2023-10-31T05:31:48;99508.97;;;10.52;97.42
49473;BME280;73594;50.944;6.950;2023-10-31T05:34:14;99507.38;;;10.51;97.24
49473;BME280;73594;50.944;6.950;2023-10-31T05:36:39;99520.06;;;10.51;96.90
49473;BME280;73594;50.944;6.950;2023-10-31T05:39:04;99513.56;;;10.52;97.17
49473;BME280;73594;50.944;6.950;2023-10-31T05:41:34;99516.56;;;10.50;96.81
49473;BME280;73594;50.944;6.950;2023-10-31T05:43:59;99516.56;;;10.50;97.32
49473;BME280;73594;50.944;6.950;2023-10-31T05:46:24;99523.34;;;10.48;97.48
49473;BME280;73594;50.944;6.950;2023-10-31T05:48:52;99527.94;;;10.47;97.55
49473;BME280;73594;50.944;6.950;2023-10-31T05:51:18;99531.16;;;10.49;98.01
49473;BME280;73594;50.944;6.950;2023-10-31T05:53:46;99534.97;;;10.48;98.22
49473;BME280;73594;50.944;6.950;2023-10-31T05:56:12;99541.16;;;10.49;97.42
49473;BME280;73594;50.944;6.950;2023-10-31T05:58:39;99547.91;;;10.51;97.44
49473;BME280;73594;50.944;6.950;2023-10-31T06:01:04;99546.28;;;10.50;98.44
49473;BME280;73594;50.944;6.950;2023-10-31T06:03:30;99543.88;;;10.49;97.56
49473;BME280;73594;50.944;6.950;2023-10-31T06:05:55;99555.19;;;10.51;97.74
49473;BME280;73594;50.944;6.950;2023-10-31T06:08:21;99551.41;;;10.52;97.31
49473;BME280;73594;50.944;6.950;2023-10-31T06:10:49;99564.91;;;10.52;97.15
49473;BME280;73594;50.944;6.950;2023-10-31T06:13:16;99565.50;;;10.49;96.93
49473;BME280;73594;50.944;6.950;2023-10-31T06:15:42;99566.81;;;10.51;97.75
49473;BME280;73594;50.944;6.950;2023-10-31T06:18:07;99572.44;;;10.55;97.03
49473;BME280;73594;50.944;6.950;2023-10-31T06:20:34;99576.81;;;10.51;97.35
49473;BME280;73594;50.944;6.950;2023-10-31T06:23:01;99573.81;;;10.52;97.59
49473;BME280;73594;50.944;6.950;2023-10-31T06:25:28;99587.63;;;10.51;96.94
49473;BME280;73594;50.944;6.950;2023-10-31T06:27:54;99590.03;;;10.52;97.13
49473;BME280;73594;50.944;6.950;2023-10-31T06:30:19;99586.25;;;10.53;96.53
49473;BME280;73594;50.944;6.950;2023-10-31T06:32:44;99596.81;;;10.50;97.16
49473;BME280;73594;50.944;6.950;2023-10-31T06:35:10;99600.91;;;10.47;97.33
49473;BME280;73594;50.944;6.950;2023-10-31T06:37:36;99606.31;;;10.47;97.56
49473;BME280;73594;50.944;6.950;2023-10-31T06:40:02;99597.69;;;10.45;97.94
49473;BME280;73594;50.944;6.950;2023-10-31T06:42:27;99606.59;;;10.46;97.81
49473;BME280;73594;50.944;6.950;2023-10-31T06:44:53;99607.97;;;10.43;97.96
49473;BME280;73594;50.944;6.950;2023-10-31T06:47:18;99611.47;;;10.39;98.67
49473;BME280;73594;50.944;6.950;2023-10-31T06:49:44;99620.69;;;10.38;98.63
49473;BME280;73594;50.944;6.950;2023-10-31T06:52:09;99630.09;;;10.40;98.53
49473;BME280;73594;50.944;6.950;2023-10-31T06:54:34;99638.22;;;10.40;98.52
49473;BME280;73594;50.944;6.950;2023-10-31T06:57:00;99628.50;;;10.39;98.97
49473;BME280;73594;50.944;6.950;2023-10-31T06:59:27;99653.06;;;10.43;99.21
49473;BME280;73594;50.944;6.950;2023-10-31T07:01:54;99642.28;;;10.43;98.81
49473;BME280;73594;50.944;6.950;2023-10-31T07:04:20;99634.97;;;10.43;99.25
49473;BME280;73594;50.944;6.950;2023-10-31T07:06:45;99632.28;;;10.43;99.27
49473;BME280;73594;50.944;6.950;2023-10-31T07:09:10;99648.72;;;10.47;99.26
49473;BME280;73594;50.944;6.950;2023-10-31T07:11:36;99642.00;;;10.44;99.58
49473;BME280;73594;50.944;6.950;2023-10-31T07:14:02;99647.41;;;10.44;99.03
49473;BME280;73594;50.944;6.950;2023-10-31T07:16:29;99649.53;;;10.47;98.85
49473;BME280;73594;50.944;6.950;2023-10-31T07:19:12;99664.13;;;10.46;98.50
49473;BME280;73594;50.944;6.950;2023-10-31T07:21:38;99658.19;;;10.44;98.40
49473;BME280;73594;50.944;6.950;2023-10-31T07:24:03;99654.94;;;10.47;97.65
49473;BME280;73594;50.944;6.950;2023-10-31T07:26:29;99665.19;;;10.50;98.19
49473;BME280;73594;50.944;6.950;2023-10-31T07:28:54;99665.19;;;10.50;97.66
49473;BME280;73594;50.944;6.950;2023-10-31T07:31:20;99671.66;;;10.49;97.89
49473;BME280;73594;50.944;6.950;2023-10-31T07:33:45;99672.72;;;10.53;97.56
49473;BME280;73594;50.944;6.950;2023-10-31T07:36:11;99654.66;;;10.49;97.30
49473;BME280;73594;50.944;6.950;2023-10-31T07:38:37;99659.25;;;10.48;97.95
49473;BME280;73594;50.944;6.950;2023-10-31T07:41:02;99654.38;;;10.50;97.70
49473;BME280;73594;50.944;6.950;2023-10-31T07:43:28;99655.97;;;10.51;97.74
49473;BME280;73594;50.944;6.950;2023-10-31T07:45:53;99654.38;;;10.50;97.95
49473;BME280;73594;50.944;6.950;2023-10-31T07:48:18;99670.00;;;10.53;97.77
49473;BME280;73594;50.944;6.950;2023-10-31T07:50:44;99661.34;;;10.56;97.40
49473;BME280;73594;50.944;6.950;2023-10-31T07:53:09;99659.69;;;10.60;97.35
49473;BME280;73594;50.944;6.950;2023-10-31T07:55:34;99665.38;;;10.59;96.79
49473;BME280;73594;50.944;6.950;2023-10-31T07:58:12;99677.31;;;10.53;97.11
49473;BME280;73594;50.944;6.950;2023-10-31T08:00:38;99675.69;;;10.52;97.43
49473;BME280;73594;50.944;6.950;2023-10-31T08:03:04;99680.28;;;10.51;97.50
49473;BME280;73594;50.944;6.950;2023-10-31T08:05:29;99678.63;;;10.55;97.10
49473;BME280;73594;50.944;6.950;2023-10-31T08:07:55;99684.56;;;10.57;96.90
49473;BME280;73594;50.944;6.950;2023-10-31T08:10:20;99686.41;;;10.62;96.49
49473;BME280;73594;50.944;6.950;2023-10-31T08:12:45;99692.06;;;10.65;95.79
49473;BME280;73594;50.944;6.950;2023-10-31T08:15:11;99690.41;;;10.70;95.39
49473;BME280;73594;50.944;6.950;2023-10-31T08:17:36;99709.28;;;10.80;95.22
49473;BME280;73594;50.944;6.950;2023-10-31T08:20:02;99704.84;;;10.89;95.06
49473;BME280;73594;50.944;6.950;2023-10-31T08:22:31;99710.44;;;10.98;93.07
49473;BME280;73594;50.944;6.950;2023-10-31T08:24:57;99700.97;;;11.00;92.17
49473;BME280;73594;50.944;6.950;2023-10-31T08:27:22;99709.03;;;11.05;92.89
49473;BME280;73594;50.944;6.950;2023-10-31T08:29:48;99706.78;;;11.12;92.71
49473;BME280;73594;50.944;6.950;2023-10-31T08:32:13;99721.34;;;11.21;91.65
49473;BME280;73594;50.944;6.950;2023-10-31T08:34:38;99720.19;;;11.27;91.62
49473;BME280;73594;50.944;6.950;2023-10-31T08:37:04;99728.31;;;11.27;90.33
49473;BME280;73594;50.944;6.950;2023-10-31T08:39:29;99725.03;;;11.31;91.09
49473;BME280;73594;50.944;6.950;2023-10-31T08:41:57;99726.00;;;11.40;90.96
49473;BME280;73594;50.944;6.950;2023-10-31T08:44:23;99735.44;;;11.42;90.56
49473;BME280;73594;50.944;6.950;2023-10-31T08:46:48;99734.19;;;11.35;89.65
49473;BME280;73594;50.944;6.950;2023-10-31T08:49:15;99733.09;;;11.36;90.79
49473;BME280;73594;50.944;6.950;2023-10-31T08:51:41;99732.00;;;11.37;90.06
49473;BME280;73594;50.944;6.950;2023-10-31T08:54:06;99738.38;;;11.46;90.24
49473;BME280;73594;50.944;6.950;2023-10-31T08:56:32;99744.88;;;11.45;89.58
49473;BME280;73594;50.944;6.950;2023-10-31T08:58:58;99745.13;;;11.48;90.14
49473;BME280;73594;50.944;6.950;2023-10-31T09:01:23;99755.66;;;11.50;89.41
49473;BME280;73594;50.944;6.950;2023-10-31T09:03:48;99751.25;;;11.59;89.16
49473;BME280;73594;50.944;6.950;2023-10-31T09:06:15;99749.00;;;11.66;89.49
49473;BME280;73594;50.944;6.950;2023-10-31T09:08:40;99757.94;;;11.67;88.42
49473;BME280;73594;50.944;6.950;2023-10-31T09:11:06;99758.44;;;11.69;89.53
49473;BME280;73594;50.944;6.950;2023-10-31T09:13:32;99773.81;;;11.73;90.29
49473;BME280;73594;50.944;6.950;2023-10-31T09:15:58;99774.34;;;11.75;90.09
49473;BME280;73594;50.944;6.950;2023-10-31T09:18:24;99788.41;;;11.77;89.96
49473;BME280;73594;50.944;6.950;2023-10-31T09:20:49;99787.59;;;11.77;88.75
49473;BME280;73594;50.944;6.950;2023-10-31T09:23:15;99790.06;;;11.73;88.25
49473;BME280;73594;50.944;6.950;2023-10-31T09:25:42;99797.66;;;11.71;87.73
49473;BME280;73594;50.944;6.950;2023-10-31T09:28:08;99799.84;;;11.69;87.87
49473;BME280;73594;50.944;6.950;2023-10-31T09:30:33;99796.28;;;11.74;87.60
49473;BME280;73594;50.944;6.950;2023-10-31T09:32:58;99803.84;;;11.77;87.46
49473;BME280;73594;50.944;6.950;2023-10-31T09:35:24;99801.91;;;11.82;87.33
49473;BME280;73594;50.944;6.950;2023-10-31T09:37:50;99808.88;;;11.88;88.25
49473;BME280;73594;50.944;6.950;2023-10-31T09:40:15;99813.16;;;11.95;88.46
49473;BME280;73594;50.944;6.950;2023-10-31T09:42:41;99821.81;;;11.97;86.81
49473;BME280;73594;50.944;6.950;2023-10-31T09:45:07;99824.56;;;11.92;86.55
49473;BME280;73594;50.944;6.950;2023-10-31T09:47:32;99822.91;;;11.96;85.40
49473;BME280;73594;50.944;6.950;2023-10-31T09:49:59;99821.22;;;12.00;85.25
49473;BME280;73594;50.944;6.950;2023-10-31T09:52:25;99832.28;;;12.03;85.01
49473;BME280;73594;50.944;6.950;2023-10-31T09:54:51;99827.63;;;12.09;85.23
49473;BME280;73594;50.944;6.950;2023-10-31T09:57:17;99832.41;;;12.17;84.56
49473;BME280;73594;50.944;6.950;2023-10-31T09:59:43;99841.22;;;12.28;84.34
49473;BME280;73594;50.944;6.950;2023-10-31T10:02:08;99841.50;;;12.26;84.17
49473;BME280;73594;50.944;6.950;2023-10-31T10:04:35;99838.44;;;12.33;82.60
49473;BME280;73594;50.944;6.950;2023-10-31T10:07:02;99844.38;;;12.35;84.37
49473;BME280;73594;50.944;6.950;2023-10-31T10:09:28;99846.50;;;12.38;83.65
49473;BME280;73594;50.944;6.950;2023-10-31T10:11:53;99847.53;;;12.42;84.46
49473;BME280;73594;50.944;6.950;2023-10-31T10:14:23;99850.94;;;12.52;84.18
49473;BME280;73594;50.944;6.950;2023-10-31T10:16:48;99858.84;;;12.49;81.53
49473;BME280;73594;50.944;6.950;2023-10-31T10:19:15;99855.31;;;12.48;81.30
49473;BME280;73594;50.944;6.950;2023-10-31T10:21:57;99860.88;;;12.57;81.78
49473;BME280;73594;50.944;6.950;2023-10-31T10:24:23;99857.56;;;12.65;81.98
49473;BME280;73594;50.944;6.950;2023-10-31T10:26:50;99871.03;;;12.70;81.08
49473;BME280;73594;50.944;6.950;2023-10-31T10:29:16;99881.53;;;12.77;80.97
49473;BME280;73594;50.944;6.950;2023-10-31T10:31:42;99872.28;;;12.78;80.71
49473;BME280;73594;50.944;6.950;2023-10-31T10:34:08;99872.00;;;12.79;79.51
49473;BME280;73594;50.944;6.950;2023-10-31T10:36:34;99870.81;;;12.86;78.70
49473;BME280;73594;50.944;6.950;2023-10-31T10:39:00;99864.44;;;12.95;78.95
49473;BME280;73594;50.944;6.950;2023-10-31T10:41:28;99873.84;;;13.03;77.58
49473;BME280;73594;50.944;6.950;2023-10-31T10:43:56;99868.34;;;13.08;77.04
49473;BME280;73594;50.944;6.950;2023-10-31T10:46:24;99870.38;;;13.16;75.25
49473;BME280;73594;50.944;6.950;2023-10-31T10:48:55;99875.97;;;13.25;75.88
49473;BME280;73594;50.944;6.950;2023-10-31T10:51:28;99879.41;;;13.30;75.26
49473;BME280;73594;50.944;6.950;2023-10-31T10:53:58;99879.13;;;13.13;75.10
49473;BME280;73594;50.944;6.950;2023-10-31T10:56:34;99883.91;;;13.21;76.95
49473;BME280;73594;50.944;6.950;2023-10-31T10:59:18;99884.69;;;13.22;75.43
49473;BME280;73594;50.944;6.950;2023-10-31T11:01:46;99875.25;;;13.19;73.55
49473;BME280;73594;50.944;6.950;2023-10-31T11:04:15;99874.06;;;13.25;74.30
49473;BME280;73594;50.944;6.950;2023-10-31T11:06:42;99868.75;;;13.34;74.47
49473;BME280;73594;50.944;6.950;2023-10-31T11:09:09;99885.84;;;13.34;73.81
49473;BME280;73594;50.944;6.950;2023-10-31T11:11:37;99876.91;;;13.34;74.08
49473;BME280;73594;50.944;6.950;2023-10-31T11:14:03;99873.97;;;13.30;73.72
49473;BME280;73594;50.944;6.950;2023-10-31T11:16:34;99885.03;;;13.34;73.84
49473;BME280;73594;50.944;6.950;2023-10-31T11:19:03;99883.53;;;13.28;73.76
49473;BME280;73594;50.944;6.950;2023-10-31T11:21:31;99875.25;;;13.19;73.92
49473;BME280;73594;50.944;6.950;2023-10-31T11:24:00;99884.19;;;13.20;74.05
49473;BME280;73594;50.944;6.950;2023-10-31T11:26:27;99882.00;;;13.22;74.78
49473;BME280;73594;50.944;6.950;2023-10-31T11:29:11;99892.56;;;13.23;75.24
49473;BME280;73594;50.944;6.950;2023-10-31T11:31:46;99893.94;;;13.21;74.11
49473;BME280;73594;50.944;6.950;2023-10-31T11:34:12;99895.25;;;13.23;74.54
49473;BME280;73594;50.944;6.950;2023-10-31T11:36:37;99900.09;;;13.26;75.28
49473;BME280;73594;50.944;6.950;2023-10-31T11:39:14;99898.19;;;13.27;73.94
49473;BME280;73594;50.944;6.950;2023-10-31T11:41:40;99895.78;;;13.25;74.94
49473;BME280;73594;50.944;6.950;2023-10-31T11:44:10;99907.13;;;13.27;74.72
49473;BME280;73594;50.944;6.950;2023-10-31T11:46:35;99911.47;;;13.28;74.43
49473;BME280;73594;50.944;6.950;2023-10-31T11:49:01;99912.56;;;13.27;74.96
49473;BME280;73594;50.944;6.950;2023-10-31T11:51:27;99911.53;;;13.23;74.94
49473;BME280;73594;50.944;6.950;2023-10-31T11:53:53;99907.34;;;13.12;74.12
49473;BME280;73594;50.944;6.950;2023-10-31T11:56:22;99917.84;;;13.19;74.79
49473;BME280;73594;50.944;6.950;2023-10-31T11:59:01;99918.38;;;13.21;73.52
49473;BME280;73594;50.944;6.950;2023-10-31T12:01:27;99909.25;;;13.30;74.93
49473;BME280;73594;50.944;6.950;2023-10-31T12:03:53;99912.41;;;13.37;74.10
49473;BME280;73594;50.944;6.950;2023-10-31T12:06:18;99911.91;;;13.35;73.64
49473;BME280;73594;50.944;6.950;2023-10-31T12:08:45;99913.66;;;13.45;74.26
49473;BME280;73594;50.944;6.950;2023-10-31T12:11:23;99918.94;;;13.55;73.76
49473;BME280;73594;50.944;6.950;2023-10-31T12:13:54;99906.63;;;13.44;73.27
49473;BME280;73594;50.944;6.950;2023-10-31T12:16:23;99909.56;;;13.48;73.77
49473;BME280;73594;50.944;6.950;2023-10-31T12:18:57;99923.84;;;13.53;73.11
49473;BME280;73594;50.944;6.950;2023-10-31T12:21:42;99918.50;;;13.48;72.52
49473;BME280;73594;50.944;6.950;2023-10-31T12:24:13;99911.47;;;13.47;72.39
49473;BME280;73594;50.944;6.950;2023-10-31T12:26:39;99916.50;;;13.54;73.37
49473;BME280;73594;50.944;6.950;2023-10-31T12:29:18;99919.81;;;13.51;73.42
49473;BME280;73594;50.944;6.950;2023-10-31T12:31:52;99920.53;;;13.56;72.95
49473;BME280;73594;50.944;6.950;2023-10-31T12:34:19;99910.69;;;13.60;72.88
49473;BME280;73594;50.944;6.950;2023-10-31T12:36:47;99920.28;;;13.71;73.34
49473;BME280;73594;50.944;6.950;2023-10-31T12:39:15;99907.91;;;13.65;72.21
49473;BME280;73594;50.944;6.950;2023-10-31T12:41:42;99908.75;;;13.80;72.59
49473;BME280;73594;50.944;6.950;2023-10-31T12:44:08;99911.69;;;13.83;73.19
49473;BME280;73594;50.944;6.950;2023-10-31T12:46:40;99902.53;;;13.79;72.13
49473;BME280;73594;50.944;6.950;2023-10-31T12:49:16;99907.66;;;13.81;72.02
49473;BME280;73594;50.944;6.950;2023-10-31T12:51:59;99903.13;;;13.76;72.00
49473;BME280;73594;50.944;6.950;2023-10-31T12:54:36;99909.91;;;13.73;72.67